createdAt,value
2018-12-22T00:00:44.070Z,99421.97
2018-12-22T00:04:03.842Z,99426.70
2018-12-22T00:07:10.686Z,99418.36
2018-12-22T00:10:17.334Z,99436.22
2018-12-22T00:13:23.999Z,99437.22
2018-12-22T00:16:30.707Z,99442.77
2018-12-22T00:19:37.455Z,99447.88
2018-12-22T00:22:44.522Z,99447.13
2018-12-22T00:25:51.310Z,99453.59
2018-12-22T00:28:57.938Z,99466.72
2018-12-22T00:32:04.714Z,99480.46
2018-12-22T00:35:11.476Z,99483.06
2018-12-22T00:38:30.622Z,99497.04
2018-12-22T00:41:37.326Z,99497.55
2018-12-22T00:44:44.382Z,99509.11
2018-12-22T00:48:03.325Z,99521.13
2018-12-22T00:51:10.316Z,99530.13
2018-12-22T00:54:22.677Z,99530.20
2018-12-22T00:57:29.343Z,99547.23
2018-12-22T01:00:36.343Z,99542.51
2018-12-22T01:03:55.233Z,99552.34
2018-12-22T01:07:01.867Z,99566.50
2018-12-22T01:10:21.238Z,99574.39
2018-12-22T01:13:40.705Z,99584.35
2018-12-22T01:16:47.507Z,99589.91
2018-12-22T01:19:54.223Z,99603.11
2018-12-22T01:23:13.374Z,99601.98
2018-12-22T01:26:20.047Z,99604.09
2018-12-22T01:29:27.145Z,99612.72
2018-12-22T01:32:46.465Z,99610.63
2018-12-22T01:35:53.361Z,99605.97
2018-12-22T01:39:00.133Z,99619.92
2018-12-22T01:42:07.055Z,99627.73
2018-12-22T01:45:30.965Z,99629.91
2018-12-22T01:48:37.721Z,99648.58
2018-12-22T01:51:44.474Z,99663.05
2018-12-22T01:55:04.417Z,99664.38
2018-12-22T01:58:23.963Z,99679.22
2018-12-22T02:01:43.369Z,99679.75
2018-12-22T02:04:56.263Z,99682.38
2018-12-22T02:08:16.522Z,99684.11
2018-12-22T02:11:23.119Z,99688.83
2018-12-22T02:14:39.146Z,99691.45
2018-12-22T02:17:45.917Z,99696.18
2018-12-22T02:20:52.586Z,99694.16
2018-12-22T02:23:59.306Z,99691.23
2018-12-22T02:27:05.981Z,99695.92
2018-12-22T02:30:12.605Z,99711.22
2018-12-22T02:33:31.456Z,99708.30
2018-12-22T02:36:38.553Z,99713.02
2018-12-22T02:39:45.440Z,99717.30
2018-12-22T02:42:52.379Z,99718.72
2018-12-22T02:46:07.821Z,99720.38
2018-12-22T02:49:14.462Z,99726.89
2018-12-22T02:52:21.190Z,99733.80
2018-12-22T02:55:27.946Z,99733.83
2018-12-22T02:58:34.630Z,99736.45
2018-12-22T03:01:41.257Z,99739.91
2018-12-22T03:04:47.906Z,99740.73
2018-12-22T03:07:54.646Z,99743.73
2018-12-22T03:11:01.703Z,99749.72
2018-12-22T03:14:16.975Z,99754.45
2018-12-22T03:17:23.781Z,99748.59
2018-12-22T03:20:42.902Z,99753.70
2018-12-22T03:23:49.641Z,99756.24
2018-12-22T03:26:56.291Z,99755.87
2018-12-22T03:30:03.351Z,99749.13
2018-12-22T03:33:10.019Z,99757.59
2018-12-22T03:36:16.908Z,99761.03
2018-12-22T03:39:23.834Z,99761.91
2018-12-22T03:42:45.832Z,99763.63
2018-12-22T03:45:52.513Z,99769.06
2018-12-22T03:48:59.427Z,99772.09
2018-12-22T03:52:18.649Z,99770.45
2018-12-22T03:55:25.931Z,99774.72
2018-12-22T03:58:32.828Z,99783.27
2018-12-22T04:01:39.714Z,99778.99
2018-12-22T04:04:58.557Z,99786.27
2018-12-22T04:08:05.323Z,99792.26
2018-12-22T04:11:12.923Z,99797.35
2018-12-22T04:14:19.564Z,99799.08
2018-12-22T04:17:38.865Z,99808.00
2018-12-22T04:21:00.358Z,99813.61
2018-12-22T04:24:07.042Z,99805.14
2018-12-22T04:27:14.250Z,99820.44
2018-12-22T04:30:20.934Z,99810.69
2018-12-22T04:33:27.615Z,99815.78
2018-12-22T04:36:34.362Z,99811.14
2018-12-22T04:39:49.728Z,99815.85
2018-12-22T04:42:56.309Z,99818.41
2018-12-22T04:49:08.542Z,99839.23
2018-12-22T04:52:15.214Z,99841.83
2018-12-22T04:55:34.026Z,99846.05
2018-12-22T04:58:40.760Z,99850.75
2018-12-22T05:01:59.495Z,99852.91
2018-12-22T05:05:07.958Z,99858.39
2018-12-22T05:08:14.620Z,99854.70
2018-12-22T05:11:33.774Z,99854.84
2018-12-22T05:14:42.574Z,99861.22
2018-12-22T05:18:04.546Z,99855.73
2018-12-22T05:21:11.522Z,99868.52
2018-12-22T05:24:18.174Z,99870.24
2018-12-22T05:27:25.021Z,99864.80
2018-12-22T05:30:49.546Z,99880.88
2018-12-22T05:33:56.210Z,99880.16
2018-12-22T05:37:02.996Z,99885.01
2018-12-22T05:40:09.699Z,99885.97
2018-12-22T05:43:16.330Z,99888.97
2018-12-22T05:46:24.198Z,99895.78
2018-12-22T05:49:30.841Z,99900.05
2018-12-22T05:52:37.602Z,99900.98
2018-12-22T05:55:44.456Z,99909.06
2018-12-22T05:59:03.580Z,99912.64
2018-12-22T06:02:10.323Z,99916.16
2018-12-22T06:05:17.095Z,99914.50
2018-12-22T06:08:36.473Z,99928.09
2018-12-22T06:11:43.119Z,99929.43
2018-12-22T06:14:49.758Z,99927.33
2018-12-22T06:18:08.804Z,99929.94
2018-12-22T06:21:15.529Z,99930.91
2018-12-22T06:24:22.306Z,99931.35
2018-12-22T06:27:41.562Z,99937.72
2018-12-22T06:30:48.438Z,99936.89
2018-12-22T06:33:55.262Z,99939.87
2018-12-22T06:37:14.177Z,99951.79
2018-12-22T06:40:21.019Z,99955.67
2018-12-22T06:43:27.790Z,99958.25
2018-12-22T06:46:47.226Z,99965.03
2018-12-22T06:49:53.880Z,99968.88
2018-12-22T06:53:00.654Z,99965.06
2018-12-22T06:56:19.607Z,99975.70
2018-12-22T06:59:26.385Z,99985.88
2018-12-22T07:02:33.403Z,99984.61
2018-12-22T07:05:40.198Z,99984.23
2018-12-22T07:08:47.454Z,99985.56
2018-12-22T07:12:07.638Z,99990.22
2018-12-22T07:15:14.304Z,99992.44
2018-12-22T07:18:23.048Z,99993.65
2018-12-22T07:21:41.954Z,99992.76
2018-12-22T07:24:48.677Z,100006.06
2018-12-22T07:27:55.668Z,100003.45
2018-12-22T07:31:17.082Z,100011.66
2018-12-22T07:34:23.842Z,100020.22
2018-12-22T07:37:30.722Z,100033.02
2018-12-22T07:40:37.844Z,100040.78
2018-12-22T07:43:44.606Z,100039.63
2018-12-22T07:47:04.122Z,100043.95
2018-12-22T07:50:11.371Z,100048.24
2018-12-22T07:53:18.777Z,100051.36
2018-12-22T07:56:33.468Z,100059.94
2018-12-22T07:59:40.919Z,100066.69
2018-12-22T08:02:52.554Z,100063.87
2018-12-22T08:06:02.954Z,100077.05
2018-12-22T08:09:14.599Z,100077.91
2018-12-22T08:12:29.426Z,100086.93
2018-12-22T08:19:16.006Z,100109.39
2018-12-22T08:22:22.751Z,100113.66
2018-12-22T08:25:31.970Z,100113.33
2018-12-22T08:28:56.896Z,100120.97
2018-12-22T08:32:08.988Z,100134.58
2018-12-22T08:35:15.782Z,100141.33
2018-12-22T08:38:22.702Z,100147.69
2018-12-22T08:41:31.589Z,100157.37
2018-12-22T08:48:36.904Z,100176.52
2018-12-22T08:51:58.087Z,100182.82
2018-12-22T08:55:05.952Z,100190.34
2018-12-22T08:58:13.454Z,100192.89
2018-12-22T09:01:20.270Z,100196.23
2018-12-22T09:04:26.870Z,100206.80
2018-12-22T09:11:12.161Z,100216.87
2018-12-22T09:14:19.855Z,100218.09
2018-12-22T09:17:29.817Z,100229.50
2018-12-22T09:20:39.219Z,100234.53
2018-12-22T09:23:51.739Z,100242.53
2018-12-22T09:30:37.656Z,100253.43
2018-12-22T09:33:44.435Z,100253.32
2018-12-22T09:36:51.110Z,100254.92
2018-12-22T09:40:16.024Z,100255.75
2018-12-22T09:43:22.742Z,100270.95
2018-12-22T09:46:30.202Z,100275.16
2018-12-22T09:49:36.173Z,100277.65
2018-12-22T09:52:42.854Z,100280.58
2018-12-22T09:56:01.927Z,100286.89
2018-12-22T09:59:08.618Z,100289.00
2018-12-22T10:02:15.428Z,100299.57
2018-12-22T10:05:44.350Z,100303.78
2018-12-22T10:08:51.814Z,100316.88
2018-12-22T10:11:58.730Z,100316.44
2018-12-22T10:15:17.610Z,100321.47
2018-12-22T10:18:24.358Z,100323.58
2018-12-22T10:21:31.204Z,100316.82
2018-12-22T10:24:50.344Z,100314.22
2018-12-22T10:27:57.079Z,100313.77
2018-12-22T10:31:03.769Z,100315.44
2018-12-22T10:34:23.217Z,100322.19
2018-12-22T10:37:37.855Z,100322.69
2018-12-22T10:41:08.231Z,100331.61
2018-12-22T10:44:20.102Z,100333.77
2018-12-22T10:51:04.911Z,100338.86
2018-12-22T10:54:11.567Z,100338.91
2018-12-22T10:57:18.231Z,100347.77
2018-12-22T11:00:37.366Z,100355.41
2018-12-22T11:03:44.136Z,100357.13
2018-12-22T11:06:50.978Z,100361.84
2018-12-22T11:10:21.433Z,100365.66
2018-12-22T11:13:29.198Z,100363.94
2018-12-22T11:16:48.311Z,100374.91
2018-12-22T11:19:54.983Z,100376.56
2018-12-22T11:23:20.397Z,100387.64
2018-12-22T11:26:24.505Z,100390.13
2018-12-22T11:29:31.177Z,100395.17
2018-12-22T11:32:50.422Z,100396.84
2018-12-22T11:35:57.150Z,100400.14
2018-12-22T11:39:07.167Z,100405.17
2018-12-22T11:42:23.442Z,100408.95
2018-12-22T11:45:30.434Z,100405.45
2018-12-22T11:49:15.431Z,100412.61
2018-12-22T11:52:22.091Z,100410.86
2018-12-22T11:55:28.745Z,100416.73
2018-12-22T11:58:48.247Z,100409.92
2018-12-22T12:01:54.912Z,100413.19
2018-12-22T12:05:02.228Z,100418.67
2018-12-22T12:08:09.197Z,100419.89
2018-12-22T12:11:16.262Z,100419.84
2018-12-22T12:14:23.059Z,100428.30
2018-12-22T12:18:01.774Z,100431.27
2018-12-22T12:21:08.459Z,100435.47
2018-12-22T12:24:15.742Z,100436.25
2018-12-22T12:27:21.780Z,100438.36
2018-12-22T12:30:41.302Z,100445.06
2018-12-22T12:33:47.941Z,100449.27
2018-12-22T12:37:08.785Z,100459.85
2018-12-22T12:40:15.517Z,100461.55
2018-12-22T12:43:22.237Z,100467.03
2018-12-22T12:46:35.460Z,100471.64
2018-12-22T12:49:42.352Z,100466.53
2018-12-22T12:52:49.015Z,100464.82
2018-12-22T12:56:04.814Z,100471.58
2018-12-22T12:59:11.466Z,100472.80
2018-12-22T13:02:18.240Z,100480.45
2018-12-22T13:05:24.478Z,100487.65
2018-12-22T13:08:44.316Z,100493.14
2018-12-22T13:11:52.882Z,100496.96
2018-12-22T13:14:59.978Z,100496.91
2018-12-22T13:18:06.738Z,100501.62
2018-12-22T13:21:26.070Z,100502.00
2018-12-22T13:24:32.854Z,100510.46
2018-12-22T13:27:40.047Z,100513.86
2018-12-22T13:30:47.217Z,100515.56
2018-12-22T13:33:53.891Z,100522.33
2018-12-22T13:37:18.686Z,100526.15
2018-12-22T13:40:25.593Z,100530.36
2018-12-22T13:43:32.268Z,100526.48
2018-12-22T13:46:39.038Z,100533.25
2018-12-22T13:49:46.138Z,100537.91
2018-12-22T13:53:07.990Z,100538.79
2018-12-22T13:56:14.674Z,100531.97
2018-12-22T13:59:21.451Z,100540.06
2018-12-22T14:02:28.926Z,100540.45
2018-12-22T14:05:35.950Z,100536.19
2018-12-22T14:08:41.880Z,100538.73
2018-12-22T14:11:48.540Z,100547.22
2018-12-22T14:15:10.988Z,100551.04
2018-12-22T14:18:23.814Z,100549.77
2018-12-22T14:21:30.811Z,100540.84
2018-12-22T14:24:51.689Z,100540.84
2018-12-22T14:27:58.374Z,100541.28
2018-12-22T14:31:05.542Z,100543.39
2018-12-22T14:34:18.446Z,100551.04
2018-12-22T14:37:25.104Z,100553.59
2018-12-22T14:40:31.806Z,100561.68
2018-12-22T14:43:38.768Z,100553.20
2018-12-22T14:46:57.788Z,100568.89
2018-12-22T14:50:05.538Z,100574.87
2018-12-22T14:53:12.270Z,100582.96
2018-12-22T14:56:20.081Z,100588.06
2018-12-22T14:59:39.786Z,100591.89
2018-12-22T15:02:46.462Z,100598.70
2018-12-22T15:05:53.134Z,100600.86
2018-12-22T15:08:59.070Z,100609.34
2018-12-22T15:12:05.731Z,100608.12
2018-12-22T15:15:13.229Z,100606.02
2018-12-22T15:18:20.470Z,100610.22
2018-12-22T15:21:27.544Z,100607.28
2018-12-22T15:24:34.334Z,100610.28
2018-12-22T15:27:41.033Z,100610.28
2018-12-22T15:30:47.931Z,100612.83
2018-12-22T15:33:55.111Z,100615.38
2018-12-22T15:37:02.186Z,100616.21
2018-12-22T15:40:10.213Z,100620.92
2018-12-22T15:43:16.895Z,100620.55
2018-12-22T15:46:23.658Z,100631.14
2018-12-22T15:49:42.548Z,100632.91
2018-12-22T15:52:49.276Z,100631.62
2018-12-22T15:55:55.937Z,100638.00
2018-12-22T15:59:02.626Z,100640.60
2018-12-22T16:02:09.378Z,100640.16
2018-12-22T16:05:16.149Z,100642.71
2018-12-22T16:08:35.295Z,100636.83
2018-12-22T16:11:41.939Z,100638.59
2018-12-22T16:14:57.245Z,100647.95
2018-12-22T16:18:04.119Z,100653.06
2018-12-22T16:21:10.778Z,100658.59
2018-12-22T16:24:29.913Z,100653.98
2018-12-22T16:27:36.580Z,100658.25
2018-12-22T16:30:57.815Z,100663.77
2018-12-22T16:34:16.879Z,100665.04
2018-12-22T16:37:23.781Z,100661.70
2018-12-22T16:40:30.438Z,100661.70
2018-12-22T16:43:51.578Z,100665.09
2018-12-22T16:46:58.474Z,100666.02
2018-12-22T16:50:07.814Z,100666.86
2018-12-22T16:53:14.559Z,100675.78
2018-12-22T16:56:21.210Z,100675.83
2018-12-22T16:59:40.294Z,100677.09
2018-12-22T17:03:10.728Z,100679.70
2018-12-22T17:06:14.872Z,100692.05
2018-12-22T17:09:21.858Z,100695.87
2018-12-22T17:12:37.513Z,100702.72
2018-12-22T17:15:51.469Z,100713.45
2018-12-22T17:18:58.386Z,100715.20
2018-12-22T17:22:18.037Z,100720.79
2018-12-22T17:25:31.694Z,100723.84
2018-12-22T17:28:38.346Z,100724.70
2018-12-22T17:31:58.394Z,100737.95
2018-12-22T17:35:15.270Z,100741.77
2018-12-22T17:38:21.516Z,100741.03
2018-12-22T17:41:42.607Z,100753.38
2018-12-22T17:44:49.363Z,100756.36
2018-12-22T17:47:56.092Z,100756.84
2018-12-22T17:51:04.030Z,100760.67
2018-12-22T17:54:10.670Z,100764.50
2018-12-22T17:57:17.419Z,100770.88
2018-12-22T18:00:24.710Z,100778.08
2018-12-22T18:03:35.126Z,100780.72
2018-12-22T18:06:53.965Z,100788.36
2018-12-22T18:10:01.398Z,100793.45
2018-12-22T18:13:08.053Z,100796.84
2018-12-22T18:16:14.917Z,100800.70
2018-12-22T18:19:35.870Z,100806.67
2018-12-22T18:22:42.581Z,100811.38
2018-12-22T18:25:49.561Z,100819.89
2018-12-22T18:29:10.645Z,100822.44
2018-12-22T18:32:17.398Z,100828.41
2018-12-22T18:35:24.175Z,100829.30
2018-12-22T18:38:43.281Z,100840.36
2018-12-22T18:41:49.975Z,100840.77
2018-12-22T18:44:56.793Z,100841.20
2018-12-22T18:48:15.969Z,100842.91
2018-12-22T18:51:22.702Z,100848.89
2018-12-22T18:54:29.454Z,100851.44
2018-12-22T18:57:36.518Z,100845.55
2018-12-22T19:00:43.291Z,100846.82
2018-12-22T19:03:50.283Z,100860.39
2018-12-22T19:06:56.942Z,100862.98
2018-12-22T19:10:20.849Z,100865.53
2018-12-22T19:13:28.071Z,100875.32
2018-12-22T19:16:34.764Z,100879.18
2018-12-22T19:19:41.690Z,100884.67
2018-12-22T19:22:48.711Z,100891.08
2018-12-22T19:26:08.267Z,100895.73
2018-12-22T19:29:15.150Z,100898.33
2018-12-22T19:32:21.807Z,100901.70
2018-12-22T19:35:28.454Z,100908.95
2018-12-22T19:38:47.737Z,100913.64
2018-12-22T19:41:54.404Z,100921.69
2018-12-22T19:45:13.249Z,100924.72
2018-12-22T19:48:19.917Z,100928.48
2018-12-22T19:51:38.717Z,100928.09
2018-12-22T19:54:45.716Z,100932.75
2018-12-22T19:57:52.467Z,100933.62
2018-12-22T20:01:11.399Z,100931.96
2018-12-22T20:04:18.491Z,100938.37
2018-12-22T20:07:25.138Z,100937.97
2018-12-22T20:10:45.154Z,100939.64
2018-12-22T20:13:52.214Z,100944.33
2018-12-22T20:17:11.262Z,100949.75
2018-12-22T20:20:17.970Z,100953.96
2018-12-22T20:23:24.726Z,100955.63
2018-12-22T20:26:31.386Z,100953.45
2018-12-22T20:29:38.163Z,100952.09
2018-12-22T20:32:44.836Z,100955.83
2018-12-22T20:36:03.989Z,100964.75
2018-12-22T20:39:10.647Z,100957.09
2018-12-22T20:42:29.517Z,100959.61
2018-12-22T20:45:36.404Z,100967.64
2018-12-22T20:48:43.122Z,100968.92
2018-12-22T20:52:07.666Z,100970.62
2018-12-22T20:55:14.321Z,100973.17
2018-12-22T20:58:21.194Z,100978.23
2018-12-22T21:01:40.361Z,100972.30
2018-12-22T21:04:47.315Z,100982.97
2018-12-22T21:07:53.998Z,100978.75
2018-12-22T21:11:15.091Z,100988.90
2018-12-22T21:14:21.853Z,100988.50
2018-12-22T21:17:28.494Z,100993.59
2018-12-22T21:20:35.153Z,101003.78
2018-12-22T21:23:41.905Z,101005.89
2018-12-22T21:26:49.104Z,101004.19
2018-12-22T21:29:55.827Z,101005.45
2018-12-22T21:33:02.379Z,101002.47
2018-12-22T21:36:09.141Z,101001.23
2018-12-22T21:39:16.186Z,101008.05
2018-12-22T21:42:31.540Z,101013.10
2018-12-22T21:45:38.465Z,101013.50
2018-12-22T21:48:45.305Z,101021.14
2018-12-22T21:52:00.698Z,101023.25
2018-12-22T21:55:07.887Z,101024.17
2018-12-22T21:58:14.757Z,101030.54
2018-12-22T22:01:21.879Z,101029.70
2018-12-22T22:04:36.844Z,101029.74
2018-12-22T22:07:49.372Z,101035.27
2018-12-22T22:10:56.027Z,101039.53
2018-12-22T22:14:14.976Z,101039.97
2018-12-22T22:17:21.726Z,101038.70
2018-12-22T22:20:28.496Z,101045.94
2018-12-22T22:23:47.541Z,101044.66
2018-12-22T22:26:54.530Z,101045.94
2018-12-22T22:30:01.191Z,101040.41
2018-12-22T22:33:16.781Z,101043.35
2018-12-22T22:36:23.417Z,101042.95
2018-12-22T22:39:29.445Z,101054.41
2018-12-22T22:42:36.095Z,101052.70
2018-12-22T22:45:51.638Z,101056.05
2018-12-22T22:48:58.503Z,101059.47
2018-12-22T22:52:05.579Z,101059.88
2018-12-22T22:55:12.323Z,101068.39
2018-12-22T22:58:29.906Z,101076.00
2018-12-22T23:01:37.058Z,101071.34
2018-12-22T23:04:45.105Z,101072.61
2018-12-22T23:08:00.973Z,101073.92
2018-12-22T23:11:07.605Z,101073.92
2018-12-22T23:14:14.138Z,101077.70
2018-12-22T23:17:31.807Z,101076.03
2018-12-22T23:20:38.556Z,101075.63
2018-12-22T23:23:45.200Z,101080.69
2018-12-22T23:26:51.842Z,101079.05
2018-12-22T23:29:58.566Z,101077.34
2018-12-22T23:33:05.225Z,101082.84
2018-12-22T23:36:12.288Z,101074.76
2018-12-22T23:39:18.929Z,101073.88
2018-12-22T23:42:25.654Z,101070.06
2018-12-22T23:45:32.636Z,101071.34
2018-12-22T23:48:51.733Z,101070.47
2018-12-22T23:51:58.594Z,101068.75
2018-12-22T23:55:05.925Z,101054.33
2018-12-22T23:58:12.690Z,101067.87
